createdAt,value
2017-12-24T00:08:29.481Z,1010.75
2017-12-24T00:18:57.014Z,1010.62
2017-12-24T00:29:25.538Z,1010.49
2017-12-24T00:39:54.043Z,1010.54
2017-12-24T00:50:22.506Z,1010.39
2017-12-24T01:00:50.982Z,1010.28
2017-12-24T01:11:19.484Z,1010.35
2017-12-24T01:21:47.461Z,1010.17
2017-12-24T01:32:16.060Z,1010.05
2017-12-24T01:42:44.944Z,1010.24
2017-12-24T01:53:13.445Z,1010.33
2017-12-24T02:03:41.946Z,1010.20
2017-12-24T02:14:10.430Z,1010.17
2017-12-24T02:24:38.944Z,1010.25
2017-12-24T02:35:07.316Z,1010.33
2017-12-24T02:45:35.349Z,1010.30
2017-12-24T02:56:04.289Z,1010.16
2017-12-24T03:06:32.300Z,1009.88
2017-12-24T03:17:01.277Z,1009.74
2017-12-24T03:27:29.295Z,1009.74
2017-12-24T03:37:58.287Z,1009.73
2017-12-24T03:48:26.791Z,1009.82
2017-12-24T03:58:54.766Z,1009.66
2017-12-24T04:09:23.764Z,1009.56
2017-12-24T04:19:52.257Z,1009.61
2017-12-24T04:30:20.239Z,1009.60
2017-12-24T04:40:49.222Z,1009.50
2017-12-24T04:51:17.202Z,1009.38
2017-12-24T05:01:46.193Z,1009.39
2017-12-24T05:12:14.157Z,1009.41
2017-12-24T05:22:42.629Z,1009.35
2017-12-24T05:33:11.636Z,1009.21
2017-12-24T05:43:40.063Z,1009.13
2017-12-24T05:54:08.022Z,1009.15
2017-12-24T06:04:36.984Z,1009.21
2017-12-24T06:15:05.467Z,1009.11
2017-12-24T06:25:33.422Z,1009.12
2017-12-24T06:36:02.388Z,1009.01
2017-12-24T06:46:30.355Z,1008.98
2017-12-24T06:56:59.330Z,1008.86
2017-12-24T07:07:27.848Z,1008.87
2017-12-24T07:17:56.304Z,1009.00
2017-12-24T07:28:24.788Z,1009.04
2017-12-24T07:38:52.769Z,1008.99
2017-12-24T07:49:21.260Z,1008.88
2017-12-24T07:59:50.253Z,1008.78
2017-12-24T08:10:18.255Z,1008.72
2017-12-24T08:20:46.786Z,1008.73
2017-12-24T08:31:15.294Z,1008.66
2017-12-24T08:41:44.320Z,1008.72
2017-12-24T08:52:12.886Z,1008.80
2017-12-24T09:02:41.483Z,1008.76
2017-12-24T09:13:09.613Z,1008.74
2017-12-24T09:23:38.238Z,1008.90
2017-12-24T09:34:06.888Z,1008.78
2017-12-24T09:44:35.574Z,1008.43
2017-12-24T09:55:04.308Z,1008.58
2017-12-24T10:05:33.060Z,1008.49
2017-12-24T10:16:02.359Z,1008.45
2017-12-24T10:26:31.189Z,1008.43
2017-12-24T10:36:59.487Z,1008.34
2017-12-24T10:47:28.429Z,1008.16
2017-12-24T10:57:57.735Z,1008.08
2017-12-24T11:08:26.031Z,1007.60
2017-12-24T11:18:55.151Z,1007.60
2017-12-24T11:29:24.502Z,1007.43
2017-12-24T11:39:53.484Z,1007.43
2017-12-24T11:50:22.002Z,1007.45
2017-12-24T12:00:50.916Z,1007.39
2017-12-24T12:11:20.410Z,1006.97
2017-12-24T12:21:49.412Z,1007.00
2017-12-24T12:32:17.950Z,1006.98
2017-12-24T12:42:46.948Z,1006.89
2017-12-24T12:53:15.966Z,1006.61
2017-12-24T13:03:44.986Z,1006.36
2017-12-24T13:14:14.568Z,1006.39
2017-12-24T13:15:20.273Z,1006.38
2017-12-24T13:25:49.401Z,1006.57
2017-12-24T13:36:19.034Z,1006.57
2017-12-24T13:46:47.484Z,1006.12
2017-12-24T13:47:54.009Z,1006.21
2017-12-24T13:58:23.260Z,1006.21
2017-12-24T14:08:51.759Z,1006.74
2017-12-24T14:19:20.770Z,1006.51
2017-12-24T14:29:50.126Z,1006.52
2017-12-24T14:40:19.146Z,1006.51
2017-12-24T14:50:47.847Z,1006.42
2017-12-24T15:01:15.967Z,1006.41
2017-12-24T15:11:44.655Z,1006.21
2017-12-24T15:22:13.799Z,1006.27
2017-12-24T15:32:41.984Z,1006.34
2017-12-24T15:43:11.161Z,1006.38
2017-12-24T15:53:39.591Z,1006.29
2017-12-24T16:14:36.706Z,1006.26
2017-12-24T16:25:05.254Z,1006.21
2017-12-24T16:35:33.834Z,1006.20
2017-12-24T16:46:01.753Z,1005.96
2017-12-24T16:56:30.761Z,1006.13
2017-12-24T17:06:59.074Z,1006.06
2017-12-24T17:17:27.823Z,1006.14
2017-12-24T17:27:55.707Z,1005.92
2017-12-24T17:38:24.710Z,1005.94
2017-12-24T17:48:53.993Z,1005.96
2017-12-24T17:59:21.623Z,1005.93
2017-12-24T18:09:49.540Z,1005.91
2017-12-24T18:20:17.988Z,1005.80
2017-12-24T18:30:46.455Z,1005.72
2017-12-24T18:41:15.438Z,1005.71
2017-12-24T18:51:43.359Z,1005.64
2017-12-24T19:02:13.177Z,1005.63
2017-12-24T19:12:40.571Z,1005.65
2017-12-24T19:23:08.446Z,1005.61
2017-12-24T19:33:37.464Z,1005.47
2017-12-24T19:44:05.231Z,1005.36
2017-12-24T19:54:33.581Z,1005.26
2017-12-24T20:05:01.962Z,1005.24
2017-12-24T20:15:30.885Z,1005.16
2017-12-24T20:25:59.277Z,1005.14
2017-12-24T20:36:27.706Z,1005.11
2017-12-24T20:46:56.215Z,1005.10
2017-12-24T20:57:24.555Z,1005.14
2017-12-24T21:07:53.033Z,1005.02
2017-12-24T21:18:20.974Z,1004.97
2017-12-24T21:28:49.390Z,1004.88
2017-12-24T21:39:17.868Z,1004.92
2017-12-24T21:49:46.267Z,1004.82
2017-12-24T22:00:16.264Z,1004.71
2017-12-24T22:10:43.122Z,1004.71
2017-12-24T22:21:12.056Z,1004.74
2017-12-24T22:31:40.480Z,1004.65
2017-12-24T23:03:07.325Z,1004.45
2017-12-24T23:13:34.672Z,1004.43
2017-12-24T23:24:02.795Z,1004.34
2017-12-24T23:34:31.019Z,1004.48
2017-12-24T23:44:58.953Z,1004.43
2017-12-24T23:55:28.098Z,1004.43
